Airfield :
LOGIN :

Register | Disclaimer

   EN    FR    IT 

 










Legend :    VFR   Marginal VFR   IFR   Intensive IFR   Very Intensive IFR
Visi :
Ceiling :
>= 8 km
>= 3000ft
5 to 8 km
1000 to 3000 ft
1500m to 5 km
500 to 1000 ft
800 to 1500m
200 to 500 ft
< 800m
< 200 ft
Symbols :   Thunderstorms  Fog  Heavy snow  Heavy precipitations  Wind > 20 kt
SIGMETs :     Misc.  Thunderstorms  Icing  Turbulence  Mountain Waves  Volcanic Ashes






- Airport Elevation : 461 ft
- IATA code : WIE


ETOU - Wiesbaden Army

CURRENT METAR :
  • 130815Z AUTO 23007KT 9999 SCT028 BKN035 BKN050 18/10 M RMK AO2 SLPNO $

EXPIRED METARs :
  • 130755Z AUTO 26006KT 9999 BKN026 18/11 M RMK AO2 CIG 026V037 SLPNO T01780107
  • 130655Z AUTO 22003KT 9999 SCT020 BKN060 16/11 M RMK AO2 SLPNO T01620109 $
  • 130555Z AUTO 00000KT 9999 OVC055 15/11 M RMK AO2 SLPNO 60000 T01510109 10151 20130 $
  • 130455Z AUTO 00000KT 9999 SCT035 OVC042 15/11 A2994 RMK AO2 SLP140 T01450113 $
  • 130420Z AUTO 00000KT 9999 OVC031 14/11 A2993 RMK AO2 SLP136 $
  • 130410Z AUTO 00000KT 9999 OVC029 14/11 A2993 RMK AO2 SLP136 $
  • 130355Z AUTO 00000KT 9999 SCT030 OVC047 14/12 A2993 RMK AO2 SLP136 T01360115 $

TAF AMD TAF ETOU
Valid from the 12 at 19:00 until the 13 at 18:00 UTC


121905Z 1219/1318 30010G20KT 9999 BKN020 QNH2982INS
BECMG 1303/1304 VRB06KT 9999 SCT025 BKN030 QNH2992INS
BECMG 1309/1310 26009KT 9999 SCT030 QNH2990INS TX27/1313Z TN14/1302Z LAST NO AMDS AFT 1219 NEXT 1304



MET'MAP, your aeronautical weather chart ! - Copyright ORBIFLY December 2007 - Disclaimer

ORBIFLY MET'MAP TEAM :

Programming & Development : Alexandra Zaïnal
Original concept : Baudouin d'Aumeries
Technical & hardware support : Manuel Goepfert
Assistance : Marc-Olivier Méhu




SOURCES & CREDITS :

   NOAA